sensor_id;sensor_type;location;lat;lon;timestamp;temperature;humidity
71177;DHT22;58877;51.992;4.504;2023-12-04T00:01:14;3.58;80.13
71177;DHT22;58877;51.992;4.504;2023-12-04T00:03:40;3.59;80.06
71177;DHT22;58877;51.992;4.504;2023-12-04T00:06:06;3.60;80.13
71177;DHT22;58877;51.992;4.504;2023-12-04T00:08:32;3.69;79.89
71177;DHT22;58877;51.992;4.504;2023-12-04T00:10:59;3.66;80.10
71177;DHT22;58877;51.992;4.504;2023-12-04T00:13:24;3.70;80.02
71177;DHT22;58877;51.992;4.504;2023-12-04T00:15:50;3.74;80.02
71177;DHT22;58877;51.992;4.504;2023-12-04T00:18:16;3.80;79.93
71177;DHT22;58877;51.992;4.504;2023-12-04T00:20:42;3.89;79.65
71177;DHT22;58877;51.992;4.504;2023-12-04T00:23:07;3.87;79.76
71177;DHT22;58877;51.992;4.504;2023-12-04T00:25:33;3.90;79.55
71177;DHT22;58877;51.992;4.504;2023-12-04T00:27:59;3.89;79.48
71177;DHT22;58877;51.992;4.504;2023-12-04T00:30:24;3.89;79.31
71177;DHT22;58877;51.992;4.504;2023-12-04T00:32:50;3.80;79.43
71177;DHT22;58877;51.992;4.504;2023-12-04T00:35:16;3.84;79.54
71177;DHT22;58877;51.992;4.504;2023-12-04T00:37:42;3.82;79.36
71177;DHT22;58877;51.992;4.504;2023-12-04T00:40:08;3.84;79.45
71177;DHT22;58877;51.992;4.504;2023-12-04T00:42:34;3.83;79.53
71177;DHT22;58877;51.992;4.504;2023-12-04T00:44:59;3.79;79.55
71177;DHT22;58877;51.992;4.504;2023-12-04T00:47:25;3.80;79.35
71177;DHT22;58877;51.992;4.504;2023-12-04T00:49:51;3.73;79.59
71177;DHT22;58877;51.992;4.504;2023-12-04T00:52:16;3.73;79.54
71177;DHT22;58877;51.992;4.504;2023-12-04T00:54:42;3.79;79.22
71177;DHT22;58877;51.992;4.504;2023-12-04T00:57:08;3.80;79.07
71177;DHT22;58877;51.992;4.504;2023-12-04T00:59:34;3.80;79.01
71177;DHT22;58877;51.992;4.504;2023-12-04T01:02:01;3.74;79.02
71177;DHT22;58877;51.992;4.504;2023-12-04T01:04:26;3.80;79.08
71177;DHT22;58877;51.992;4.504;2023-12-04T01:06:52;3.80;78.97
71177;DHT22;58877;51.992;4.504;2023-12-04T01:09:18;3.80;79.06
71177;DHT22;58877;51.992;4.504;2023-12-04T01:11:51;3.79;79.09
71177;DHT22;58877;51.992;4.504;2023-12-04T01:14:17;3.84;79.19
71177;DHT22;58877;51.992;4.504;2023-12-04T01:16:42;3.87;79.01
71177;DHT22;58877;51.992;4.504;2023-12-04T01:19:08;3.86;78.93
71177;DHT22;58877;51.992;4.504;2023-12-04T01:21:34;3.90;78.91
71177;DHT22;58877;51.992;4.504;2023-12-04T01:24:02;3.87;78.89
71177;DHT22;58877;51.992;4.504;2023-12-04T01:26:31;3.90;78.85
71177;DHT22;58877;51.992;4.504;2023-12-04T01:28:56;3.90;78.75
71177;DHT22;58877;51.992;4.504;2023-12-04T01:31:22;3.83;78.79
71177;DHT22;58877;51.992;4.504;2023-12-04T01:33:48;3.86;78.95
71177;DHT22;58877;51.992;4.504;2023-12-04T01:36:14;3.82;78.90
71177;DHT22;58877;51.992;4.504;2023-12-04T01:38:39;3.83;79.01
71177;DHT22;58877;51.992;4.504;2023-12-04T01:41:05;3.82;79.03
71177;DHT22;58877;51.992;4.504;2023-12-04T01:43:31;3.86;78.78
71177;DHT22;58877;51.992;4.504;2023-12-04T01:45:59;3.86;78.57
71177;DHT22;58877;51.992;4.504;2023-12-04T01:48:28;3.84;78.74
71177;DHT22;58877;51.992;4.504;2023-12-04T01:50:55;3.87;78.45
71177;DHT22;58877;51.992;4.504;2023-12-04T01:53:22;3.84;78.19
71177;DHT22;58877;51.992;4.504;2023-12-04T01:55:51;3.87;78.10
71177;DHT22;58877;51.992;4.504;2023-12-04T01:58:17;3.84;78.25
71177;DHT22;58877;51.992;4.504;2023-12-04T02:00:46;3.86;78.33
71177;DHT22;58877;51.992;4.504;2023-12-04T02:03:13;3.90;78.03
71177;DHT22;58877;51.992;4.504;2023-12-04T02:05:42;3.90;78.19
71177;DHT22;58877;51.992;4.504;2023-12-04T02:08:10;3.94;77.92
71177;DHT22;58877;51.992;4.504;2023-12-04T02:10:38;3.94;77.81
71177;DHT22;58877;51.992;4.504;2023-12-04T02:13:05;3.89;77.33
71177;DHT22;58877;51.992;4.504;2023-12-04T02:15:31;3.91;77.37
71177;DHT22;58877;51.992;4.504;2023-12-04T02:17:57;3.96;77.20
71177;DHT22;58877;51.992;4.504;2023-12-04T02:20:34;3.97;77.18
71177;DHT22;58877;51.992;4.504;2023-12-04T02:23:01;3.94;77.20
71177;DHT22;58877;51.992;4.504;2023-12-04T02:25:30;3.93;77.06
71177;DHT22;58877;51.992;4.504;2023-12-04T02:27:59;3.94;77.02
71177;DHT22;58877;51.992;4.504;2023-12-04T02:30:30;3.97;77.03
71177;DHT22;58877;51.992;4.504;2023-12-04T02:32:58;3.98;76.82
71177;DHT22;58877;51.992;4.504;2023-12-04T02:35:29;3.98;76.53
71177;DHT22;58877;51.992;4.504;2023-12-04T02:37:59;4.04;76.40
71177;DHT22;58877;51.992;4.504;2023-12-04T02:40:25;4.04;75.72
71177;DHT22;58877;51.992;4.504;2023-12-04T02:42:54;3.97;75.74
71177;DHT22;58877;51.992;4.504;2023-12-04T02:45:21;4.00;75.84
71177;DHT22;58877;51.992;4.504;2023-12-04T02:47:46;3.96;75.63
71177;DHT22;58877;51.992;4.504;2023-12-04T02:50:12;3.96;75.62
71177;DHT22;58877;51.992;4.504;2023-12-04T02:52:38;3.98;75.42
71177;DHT22;58877;51.992;4.504;2023-12-04T02:55:08;3.90;75.39
71177;DHT22;58877;51.992;4.504;2023-12-04T02:57:33;3.93;75.33
71177;DHT22;58877;51.992;4.504;2023-12-04T02:59:59;3.90;75.11
71177;DHT22;58877;51.992;4.504;2023-12-04T03:02:25;3.93;75.00
71177;DHT22;58877;51.992;4.504;2023-12-04T03:04:50;4.00;74.70
71177;DHT22;58877;51.992;4.504;2023-12-04T03:07:16;3.91;74.76
71177;DHT22;58877;51.992;4.504;2023-12-04T03:09:45;3.91;74.73
71177;DHT22;58877;51.992;4.504;2023-12-04T03:12:11;3.93;74.51
71177;DHT22;58877;51.992;4.504;2023-12-04T03:14:36;3.90;74.04
71177;DHT22;58877;51.992;4.504;2023-12-04T03:17:02;3.97;74.06
71177;DHT22;58877;51.992;4.504;2023-12-04T03:19:28;3.98;73.91
71177;DHT22;58877;51.992;4.504;2023-12-04T03:21:53;3.97;73.99
71177;DHT22;58877;51.992;4.504;2023-12-04T03:24:19;3.94;73.67
71177;DHT22;58877;51.992;4.504;2023-12-04T03:26:44;3.90;73.70
71177;DHT22;58877;51.992;4.504;2023-12-04T03:29:10;3.93;73.68
71177;DHT22;58877;51.992;4.504;2023-12-04T03:31:38;3.94;73.62
71177;DHT22;58877;51.992;4.504;2023-12-04T03:34:04;3.94;73.59
71177;DHT22;58877;51.992;4.504;2023-12-04T03:36:30;3.93;73.34
71177;DHT22;58877;51.992;4.504;2023-12-04T03:38:55;3.97;73.14
71177;DHT22;58877;51.992;4.504;2023-12-04T03:41:21;3.91;73.00
71177;DHT22;58877;51.992;4.504;2023-12-04T03:43:48;3.98;73.22
71177;DHT22;58877;51.992;4.504;2023-12-04T03:46:14;4.03;72.94
71177;DHT22;58877;51.992;4.504;2023-12-04T03:48:39;4.00;72.60
71177;DHT22;58877;51.992;4.504;2023-12-04T03:51:05;3.97;72.45
71177;DHT22;58877;51.992;4.504;2023-12-04T03:53:31;4.01;72.46
71177;DHT22;58877;51.992;4.504;2023-12-04T03:55:59;4.01;72.50
71177;DHT22;58877;51.992;4.504;2023-12-04T03:58:25;4.01;72.66
71177;DHT22;58877;51.992;4.504;2023-12-04T04:00:51;4.00;72.48
71177;DHT22;58877;51.992;4.504;2023-12-04T04:03:17;4.00;72.33
71177;DHT22;58877;51.992;4.504;2023-12-04T04:05:42;4.04;72.02
71177;DHT22;58877;51.992;4.504;2023-12-04T04:08:08;4.04;71.92
71177;DHT22;58877;51.992;4.504;2023-12-04T04:10:34;4.07;71.66
71177;DHT22;58877;51.992;4.504;2023-12-04T04:12:59;4.10;71.43
71177;DHT22;58877;51.992;4.504;2023-12-04T04:15:26;4.06;71.72
71177;DHT22;58877;51.992;4.504;2023-12-04T04:17:52;4.11;71.59
71177;DHT22;58877;51.992;4.504;2023-12-04T04:20:20;4.11;71.40
71177;DHT22;58877;51.992;4.504;2023-12-04T04:22:48;4.14;71.30
71177;DHT22;58877;51.992;4.504;2023-12-04T04:25:14;4.13;71.50
71177;DHT22;58877;51.992;4.504;2023-12-04T04:27:39;4.11;71.37
71177;DHT22;58877;51.992;4.504;2023-12-04T04:30:05;4.13;71.10
71177;DHT22;58877;51.992;4.504;2023-12-04T04:32:31;4.10;71.17
71177;DHT22;58877;51.992;4.504;2023-12-04T04:34:57;4.08;71.08
71177;DHT22;58877;51.992;4.504;2023-12-04T04:37:23;4.16;70.94
71177;DHT22;58877;51.992;4.504;2023-12-04T04:39:48;4.10;70.95
71177;DHT22;58877;51.992;4.504;2023-12-04T04:42:14;4.11;70.84
71177;DHT22;58877;51.992;4.504;2023-12-04T04:44:40;4.13;70.80
71177;DHT22;58877;51.992;4.504;2023-12-04T04:47:06;4.08;70.42
71177;DHT22;58877;51.992;4.504;2023-12-04T04:49:32;4.08;70.44
71177;DHT22;58877;51.992;4.504;2023-12-04T04:51:58;4.04;70.60
71177;DHT22;58877;51.992;4.504;2023-12-04T04:54:23;4.03;70.62
71177;DHT22;58877;51.992;4.504;2023-12-04T04:56:49;4.08;70.57
71177;DHT22;58877;51.992;4.504;2023-12-04T04:59:16;4.08;70.73
71177;DHT22;58877;51.992;4.504;2023-12-04T05:01:45;4.06;70.50
71177;DHT22;58877;51.992;4.504;2023-12-04T05:04:13;4.01;70.25
71177;DHT22;58877;51.992;4.504;2023-12-04T05:06:39;4.06;70.09
71177;DHT22;58877;51.992;4.504;2023-12-04T05:09:07;4.10;69.88
71177;DHT22;58877;51.992;4.504;2023-12-04T05:11:34;4.16;70.13
71177;DHT22;58877;51.992;4.504;2023-12-04T05:13:59;4.21;69.82
71177;DHT22;58877;51.992;4.504;2023-12-04T05:16:25;4.25;69.56
71177;DHT22;58877;51.992;4.504;2023-12-04T05:18:51;4.27;69.72
71177;DHT22;58877;51.992;4.504;2023-12-04T05:21:23;4.22;69.72
71177;DHT22;58877;51.992;4.504;2023-12-04T05:24:01;4.21;69.53
71177;DHT22;58877;51.992;4.504;2023-12-04T05:26:27;4.14;70.04
71177;DHT22;58877;51.992;4.504;2023-12-04T05:28:53;4.17;70.26
71177;DHT22;58877;51.992;4.504;2023-12-04T05:31:19;4.16;70.63
71177;DHT22;58877;51.992;4.504;2023-12-04T05:33:47;4.17;70.51
71177;DHT22;58877;51.992;4.504;2023-12-04T05:36:13;4.22;70.19
71177;DHT22;58877;51.992;4.504;2023-12-04T05:38:49;4.22;69.93
71177;DHT22;58877;51.992;4.504;2023-12-04T05:41:15;4.21;70.08
71177;DHT22;58877;51.992;4.504;2023-12-04T05:43:41;4.24;70.08
71177;DHT22;58877;51.992;4.504;2023-12-04T05:46:07;4.22;70.29
71177;DHT22;58877;51.992;4.504;2023-12-04T05:48:33;4.18;70.39
71177;DHT22;58877;51.992;4.504;2023-12-04T05:50:59;4.25;70.44
71177;DHT22;58877;51.992;4.504;2023-12-04T05:53:25;4.25;70.22
71177;DHT22;58877;51.992;4.504;2023-12-04T05:55:51;4.24;70.60
71177;DHT22;58877;51.992;4.504;2023-12-04T05:58:17;4.30;70.61
71177;DHT22;58877;51.992;4.504;2023-12-04T06:00:46;4.36;70.46
71177;DHT22;58877;51.992;4.504;2023-12-04T06:03:20;4.30;70.67
71177;DHT22;58877;51.992;4.504;2023-12-04T06:05:49;4.27;70.61
71177;DHT22;58877;51.992;4.504;2023-12-04T06:08:15;4.37;70.57
71177;DHT22;58877;51.992;4.504;2023-12-04T06:10:43;4.41;70.38
71177;DHT22;58877;51.992;4.504;2023-12-04T06:13:08;4.45;70.29
71177;DHT22;58877;51.992;4.504;2023-12-04T06:15:37;4.40;70.12
71177;DHT22;58877;51.992;4.504;2023-12-04T06:18:06;4.45;70.13
71177;DHT22;58877;51.992;4.504;2023-12-04T06:20:34;4.45;70.52
71177;DHT22;58877;51.992;4.504;2023-12-04T06:23:03;4.44;70.35
71177;DHT22;58877;51.992;4.504;2023-12-04T06:25:29;4.47;70.15
71177;DHT22;58877;51.992;4.504;2023-12-04T06:27:55;4.44;70.31
71177;DHT22;58877;51.992;4.504;2023-12-04T06:30:21;4.36;70.41
71177;DHT22;58877;51.992;4.504;2023-12-04T06:32:50;4.33;70.54
71177;DHT22;58877;51.992;4.504;2023-12-04T06:35:16;4.33;70.72
71177;DHT22;58877;51.992;4.504;2023-12-04T06:37:44;4.30;70.80
71177;DHT22;58877;51.992;4.504;2023-12-04T06:40:13;4.36;70.90
71177;DHT22;58877;51.992;4.504;2023-12-04T06:42:42;4.37;70.66
71177;DHT22;58877;51.992;4.504;2023-12-04T06:45:08;4.36;70.88
71177;DHT22;58877;51.992;4.504;2023-12-04T06:47:37;4.31;70.84
71177;DHT22;58877;51.992;4.504;2023-12-04T06:50:06;4.34;70.92
71177;DHT22;58877;51.992;4.504;2023-12-04T06:52:34;4.36;70.70
71177;DHT22;58877;51.992;4.504;2023-12-04T06:55:03;4.34;70.43
71177;DHT22;58877;51.992;4.504;2023-12-04T06:57:29;4.30;70.51
71177;DHT22;58877;51.992;4.504;2023-12-04T06:59:55;4.28;70.77
71177;DHT22;58877;51.992;4.504;2023-12-04T07:02:21;4.24;70.96
71177;DHT22;58877;51.992;4.504;2023-12-04T07:04:47;4.24;70.89
71177;DHT22;58877;51.992;4.504;2023-12-04T07:07:13;4.28;70.74
71177;DHT22;58877;51.992;4.504;2023-12-04T07:09:38;4.30;70.47
71177;DHT22;58877;51.992;4.504;2023-12-04T07:12:04;4.33;70.08
71177;DHT22;58877;51.992;4.504;2023-12-04T07:14:30;4.28;70.32
71177;DHT22;58877;51.992;4.504;2023-12-04T07:16:59;4.31;70.31
71177;DHT22;58877;51.992;4.504;2023-12-04T07:19:25;4.34;70.23
71177;DHT22;58877;51.992;4.504;2023-12-04T07:21:52;4.34;70.34
71177;DHT22;58877;51.992;4.504;2023-12-04T07:24:18;4.40;70.02
71177;DHT22;58877;51.992;4.504;2023-12-04T07:26:47;4.42;70.13
71177;DHT22;58877;51.992;4.504;2023-12-04T07:29:13;4.38;70.05
71177;DHT22;58877;51.992;4.504;2023-12-04T07:31:41;4.36;69.83
71177;DHT22;58877;51.992;4.504;2023-12-04T07:34:07;4.42;69.34
71177;DHT22;58877;51.992;4.504;2023-12-04T07:36:35;4.41;69.31
71177;DHT22;58877;51.992;4.504;2023-12-04T07:39:05;4.42;69.06
71177;DHT22;58877;51.992;4.504;2023-12-04T07:41:34;4.47;69.02
71177;DHT22;58877;51.992;4.504;2023-12-04T07:44:01;4.52;68.80
71177;DHT22;58877;51.992;4.504;2023-12-04T07:46:26;4.55;68.63
71177;DHT22;58877;51.992;4.504;2023-12-04T07:49:01;4.59;68.31
71177;DHT22;58877;51.992;4.504;2023-12-04T07:51:36;4.57;68.24
71177;DHT22;58877;51.992;4.504;2023-12-04T07:54:06;4.62;68.13
71177;DHT22;58877;51.992;4.504;2023-12-04T07:56:32;4.69;68.19
71177;DHT22;58877;51.992;4.504;2023-12-04T07:58:58;4.73;68.07
71177;DHT22;58877;51.992;4.504;2023-12-04T08:01:24;4.78;68.12
71177;DHT22;58877;51.992;4.504;2023-12-04T08:03:50;4.75;67.82
71177;DHT22;58877;51.992;4.504;2023-12-04T08:06:15;4.69;67.89
71177;DHT22;58877;51.992;4.504;2023-12-04T08:08:44;4.68;67.61
71177;DHT22;58877;51.992;4.504;2023-12-04T08:11:10;4.73;67.73
71177;DHT22;58877;51.992;4.504;2023-12-04T08:13:40;4.73;67.76
71177;DHT22;58877;51.992;4.504;2023-12-04T08:16:13;4.85;67.42
71177;DHT22;58877;51.992;4.504;2023-12-04T08:18:40;4.89;67.34
71177;DHT22;58877;51.992;4.504;2023-12-04T08:21:07;4.88;67.41
71177;DHT22;58877;51.992;4.504;2023-12-04T08:23:33;4.86;67.01
71177;DHT22;58877;51.992;4.504;2023-12-04T08:26:02;4.85;67.02
71177;DHT22;58877;51.992;4.504;2023-12-04T08:28:28;4.82;67.04
71177;DHT22;58877;51.992;4.504;2023-12-04T08:30:54;4.88;66.74
71177;DHT22;58877;51.992;4.504;2023-12-04T08:33:19;4.79;66.79
71177;DHT22;58877;51.992;4.504;2023-12-04T08:35:46;4.78;66.29
71177;DHT22;58877;51.992;4.504;2023-12-04T08:38:15;4.75;66.36
71177;DHT22;58877;51.992;4.504;2023-12-04T08:40:41;4.81;66.49
71177;DHT22;58877;51.992;4.504;2023-12-04T08:43:08;4.81;66.42
71177;DHT22;58877;51.992;4.504;2023-12-04T08:45:33;4.86;66.50
71177;DHT22;58877;51.992;4.504;2023-12-04T08:48:02;4.86;66.54
71177;DHT22;58877;51.992;4.504;2023-12-04T08:50:28;4.85;66.56
71177;DHT22;58877;51.992;4.504;2023-12-04T08:52:54;4.82;65.99
71177;DHT22;58877;51.992;4.504;2023-12-04T08:55:22;4.85;66.38
71177;DHT22;58877;51.992;4.504;2023-12-04T08:57:48;4.85;66.55
71177;DHT22;58877;51.992;4.504;2023-12-04T09:00:14;4.82;66.68
71177;DHT22;58877;51.992;4.504;2023-12-04T09:02:40;4.92;66.36
71177;DHT22;58877;51.992;4.504;2023-12-04T09:05:06;4.95;66.19
71177;DHT22;58877;51.992;4.504;2023-12-04T09:07:32;4.93;66.16
71177;DHT22;58877;51.992;4.504;2023-12-04T09:09:59;4.99;66.27
71177;DHT22;58877;51.992;4.504;2023-12-04T09:12:26;5.08;66.31
71177;DHT22;58877;51.992;4.504;2023-12-04T09:14:52;5.09;66.41
71177;DHT22;58877;51.992;4.504;2023-12-04T09:17:18;5.15;66.40
71177;DHT22;58877;51.992;4.504;2023-12-04T09:19:43;5.03;66.06
71177;DHT22;58877;51.992;4.504;2023-12-04T09:22:09;5.02;65.93
71177;DHT22;58877;51.992;4.504;2023-12-04T09:24:34;5.00;65.94
71177;DHT22;58877;51.992;4.504;2023-12-04T09:27:00;5.03;65.82
71177;DHT22;58877;51.992;4.504;2023-12-04T09:29:26;5.11;65.34
71177;DHT22;58877;51.992;4.504;2023-12-04T09:31:52;5.00;65.55
71177;DHT22;58877;51.992;4.504;2023-12-04T09:34:18;5.12;65.62
71177;DHT22;58877;51.992;4.504;2023-12-04T09:36:48;5.11;65.64
71177;DHT22;58877;51.992;4.504;2023-12-04T09:39:18;5.08;65.64
71177;DHT22;58877;51.992;4.504;2023-12-04T09:41:47;5.03;65.85
71177;DHT22;58877;51.992;4.504;2023-12-04T09:44:14;5.05;65.61
71177;DHT22;58877;51.992;4.504;2023-12-04T09:46:42;5.05;65.75
71177;DHT22;58877;51.992;4.504;2023-12-04T09:49:08;5.08;65.56
71177;DHT22;58877;51.992;4.504;2023-12-04T09:51:34;5.06;65.99
71177;DHT22;58877;51.992;4.504;2023-12-04T09:54:02;5.16;65.89
71177;DHT22;58877;51.992;4.504;2023-12-04T09:56:33;5.18;65.95
71177;DHT22;58877;51.992;4.504;2023-12-04T09:59:00;5.20;65.45
71177;DHT22;58877;51.992;4.504;2023-12-04T10:01:29;5.26;65.60
71177;DHT22;58877;51.992;4.504;2023-12-04T10:03:58;5.33;65.44
71177;DHT22;58877;51.992;4.504;2023-12-04T10:06:27;5.33;65.12
71177;DHT22;58877;51.992;4.504;2023-12-04T10:08:57;5.36;65.34
71177;DHT22;58877;51.992;4.504;2023-12-04T10:11:25;5.44;65.55
71177;DHT22;58877;51.992;4.504;2023-12-04T10:13:53;5.40;64.98
71177;DHT22;58877;51.992;4.504;2023-12-04T10:16:34;5.43;65.12
71177;DHT22;58877;51.992;4.504;2023-12-04T10:19:22;5.48;65.47
71177;DHT22;58877;51.992;4.504;2023-12-04T10:21:56;5.54;65.43
71177;DHT22;58877;51.992;4.504;2023-12-04T10:24:33;5.60;65.72
71177;DHT22;58877;51.992;4.504;2023-12-04T10:27:03;5.63;65.58
71177;DHT22;58877;51.992;4.504;2023-12-04T10:29:49;5.67;65.50
71177;DHT22;58877;51.992;4.504;2023-12-04T10:32:19;5.80;65.56
71177;DHT22;58877;51.992;4.504;2023-12-04T10:34:48;5.87;65.68
71177;DHT22;58877;51.992;4.504;2023-12-04T10:37:14;5.90;65.78
71177;DHT22;58877;51.992;4.504;2023-12-04T10:39:51;6.00;65.91
71177;DHT22;58877;51.992;4.504;2023-12-04T10:42:27;6.05;65.68
71177;DHT22;58877;51.992;4.504;2023-12-04T10:44:56;6.05;65.91
71177;DHT22;58877;51.992;4.504;2023-12-04T10:47:22;6.07;65.41
71177;DHT22;58877;51.992;4.504;2023-12-04T10:49:53;6.04;64.79
71177;DHT22;58877;51.992;4.504;2023-12-04T10:52:19;6.05;65.09
71177;DHT22;58877;51.992;4.504;2023-12-04T10:54:48;6.07;64.69
71177;DHT22;58877;51.992;4.504;2023-12-04T10:57:25;6.10;64.97
71177;DHT22;58877;51.992;4.504;2023-12-04T11:00:01;6.02;64.59
71177;DHT22;58877;51.992;4.504;2023-12-04T11:02:29;6.12;64.87
71177;DHT22;58877;51.992;4.504;2023-12-04T11:05:01;6.25;64.61
71177;DHT22;58877;51.992;4.504;2023-12-04T11:07:33;6.22;64.52
71177;DHT22;58877;51.992;4.504;2023-12-04T11:10:00;6.25;64.65
71177;DHT22;58877;51.992;4.504;2023-12-04T11:12:30;6.31;64.71
71177;DHT22;58877;51.992;4.504;2023-12-04T11:14:59;6.32;64.59
71177;DHT22;58877;51.992;4.504;2023-12-04T11:17:34;6.26;64.38
71177;DHT22;58877;51.992;4.504;2023-12-04T11:20:10;6.24;64.81
71177;DHT22;58877;51.992;4.504;2023-12-04T11:22:40;6.21;65.51
71177;DHT22;58877;51.992;4.504;2023-12-04T11:25:07;6.22;65.41
71177;DHT22;58877;51.992;4.504;2023-12-04T11:27:35;6.26;65.65
71177;DHT22;58877;51.992;4.504;2023-12-04T11:30:03;6.33;65.88
71177;DHT22;58877;51.992;4.504;2023-12-04T11:32:29;6.32;66.11
71177;DHT22;58877;51.992;4.504;2023-12-04T11:34:56;6.28;66.62
71177;DHT22;58877;51.992;4.504;2023-12-04T11:37:25;6.20;66.77
71177;DHT22;58877;51.992;4.504;2023-12-04T11:39:51;6.12;67.11
71177;DHT22;58877;51.992;4.504;2023-12-04T11:42:23;6.14;67.66
71177;DHT22;58877;51.992;4.504;2023-12-04T11:44:53;6.11;67.71
71177;DHT22;58877;51.992;4.504;2023-12-04T11:47:21;6.15;67.81
71177;DHT22;58877;51.992;4.504;2023-12-04T11:49:46;6.14;68.20
71177;DHT22;58877;51.992;4.504;2023-12-04T11:52:12;6.20;68.17
71177;DHT22;58877;51.992;4.504;2023-12-04T11:57:24;6.10;69.38
71177;DHT22;58877;51.992;4.504;2023-12-04T12:05:20;6.01;69.90
71177;DHT22;58877;51.992;4.504;2023-12-04T12:07:46;6.02;70.46
71177;DHT22;58877;51.992;4.504;2023-12-04T12:10:15;6.05;70.65
71177;DHT22;58877;51.992;4.504;2023-12-04T12:12:42;5.98;70.88
71177;DHT22;58877;51.992;4.504;2023-12-04T12:15:09;5.97;71.22
71177;DHT22;58877;51.992;4.504;2023-12-04T12:17:39;5.91;71.52
71177;DHT22;58877;51.992;4.504;2023-12-04T12:20:09;5.88;71.82
71177;DHT22;58877;51.992;4.504;2023-12-04T12:22:37;5.91;71.84
71177;DHT22;58877;51.992;4.504;2023-12-04T12:25:13;5.98;71.62
71177;DHT22;58877;51.992;4.504;2023-12-04T12:27:42;5.87;71.54
71177;DHT22;58877;51.992;4.504;2023-12-04T12:30:22;5.83;71.49
71177;DHT22;58877;51.992;4.504;2023-12-04T12:32:51;5.75;71.89
71177;DHT22;58877;51.992;4.504;2023-12-04T12:35:17;5.74;71.92
71177;DHT22;58877;51.992;4.504;2023-12-04T12:37:43;5.74;71.62
71177;DHT22;58877;51.992;4.504;2023-12-04T12:40:09;5.66;71.38
71177;DHT22;58877;51.992;4.504;2023-12-04T12:42:36;5.56;71.43
71177;DHT22;58877;51.992;4.504;2023-12-04T12:45:11;5.53;71.61
71177;DHT22;58877;51.992;4.504;2023-12-04T12:47:37;5.54;71.84
71177;DHT22;58877;51.992;4.504;2023-12-04T12:50:08;5.58;71.65
71177;DHT22;58877;51.992;4.504;2023-12-04T12:52:39;5.67;71.53
71177;DHT22;58877;51.992;4.504;2023-12-04T12:55:09;5.57;71.20
71177;DHT22;58877;51.992;4.504;2023-12-04T12:57:35;5.64;71.73
71177;DHT22;58877;51.992;4.504;2023-12-04T13:00:01;5.71;71.80
71177;DHT22;58877;51.992;4.504;2023-12-04T13:02:27;5.77;71.37
71177;DHT22;58877;51.992;4.504;2023-12-04T13:04:52;5.80;71.22
71177;DHT22;58877;51.992;4.504;2023-12-04T13:07:18;5.74;71.34
71177;DHT22;58877;51.992;4.504;2023-12-04T13:09:44;5.71;71.70
71177;DHT22;58877;51.992;4.504;2023-12-04T13:12:10;5.68;71.86
71177;DHT22;58877;51.992;4.504;2023-12-04T13:14:36;5.67;71.87
71177;DHT22;58877;51.992;4.504;2023-12-04T13:17:18;5.56;72.43
71177;DHT22;58877;51.992;4.504;2023-12-04T13:19:44;5.54;72.59
71177;DHT22;58877;51.992;4.504;2023-12-04T13:22:19;5.51;72.87
71177;DHT22;58877;51.992;4.504;2023-12-04T13:25:24;5.51;73.32
71177;DHT22;58877;51.992;4.504;2023-12-04T13:27:53;5.48;73.35
71177;DHT22;58877;51.992;4.504;2023-12-04T13:30:19;5.39;73.36
71177;DHT22;58877;51.992;4.504;2023-12-04T13:32:45;5.32;73.63
71177;DHT22;58877;51.992;4.504;2023-12-04T13:35:12;5.22;73.82
71177;DHT22;58877;51.992;4.504;2023-12-04T13:37:37;5.15;73.74
71177;DHT22;58877;51.992;4.504;2023-12-04T13:40:05;5.18;73.56
71177;DHT22;58877;51.992;4.504;2023-12-04T13:42:41;5.15;73.80
71177;DHT22;58877;51.992;4.504;2023-12-04T13:45:26;5.12;74.02
71177;DHT22;58877;51.992;4.504;2023-12-04T13:47:52;5.11;74.29
71177;DHT22;58877;51.992;4.504;2023-12-04T13:50:19;5.03;74.54
71177;DHT22;58877;51.992;4.504;2023-12-04T13:52:45;5.06;74.75
71177;DHT22;58877;51.992;4.504;2023-12-04T13:55:18;5.12;74.92
71177;DHT22;58877;51.992;4.504;2023-12-04T13:57:56;5.09;74.94
71177;DHT22;58877;51.992;4.504;2023-12-04T14:00:25;5.11;75.00
71177;DHT22;58877;51.992;4.504;2023-12-04T14:02:51;5.09;74.93
71177;DHT22;58877;51.992;4.504;2023-12-04T14:05:32;5.13;75.09
71177;DHT22;58877;51.992;4.504;2023-12-04T14:07:59;5.06;75.30
71177;DHT22;58877;51.992;4.504;2023-12-04T14:10:26;5.08;75.54
71177;DHT22;58877;51.992;4.504;2023-12-04T14:12:52;5.05;75.65
71177;DHT22;58877;51.992;4.504;2023-12-04T14:15:18;5.02;76.07
71177;DHT22;58877;51.992;4.504;2023-12-04T14:17:45;4.91;76.50
71177;DHT22;58877;51.992;4.504;2023-12-04T14:20:14;4.83;77.04
71177;DHT22;58877;51.992;4.504;2023-12-04T14:22:45;4.86;77.42
71177;DHT22;58877;51.992;4.504;2023-12-04T14:25:14;4.78;77.69
71177;DHT22;58877;51.992;4.504;2023-12-04T14:27:40;4.82;77.85
71177;DHT22;58877;51.992;4.504;2023-12-04T14:30:07;4.85;77.87
71177;DHT22;58877;51.992;4.504;2023-12-04T14:32:34;4.81;78.20
71177;DHT22;58877;51.992;4.504;2023-12-04T14:35:04;4.75;78.52
71177;DHT22;58877;51.992;4.504;2023-12-04T14:37:31;4.75;78.69
71177;DHT22;58877;51.992;4.504;2023-12-04T14:39:57;4.73;79.02
71177;DHT22;58877;51.992;4.504;2023-12-04T14:42:23;4.73;79.05
71177;DHT22;58877;51.992;4.504;2023-12-04T14:44:50;4.65;79.40
71177;DHT22;58877;51.992;4.504;2023-12-04T14:47:15;4.61;79.83
71177;DHT22;58877;51.992;4.504;2023-12-04T14:49:41;4.58;80.08
71177;DHT22;58877;51.992;4.504;2023-12-04T14:52:07;4.64;80.10
71177;DHT22;58877;51.992;4.504;2023-12-04T14:54:33;4.67;80.10
71177;DHT22;58877;51.992;4.504;2023-12-04T14:57:31;4.65;80.22
71177;DHT22;58877;51.992;4.504;2023-12-04T15:00:06;4.65;80.09
71177;DHT22;58877;51.992;4.504;2023-12-04T15:02:51;4.58;80.69
71177;DHT22;58877;51.992;4.504;2023-12-04T15:05:36;4.57;80.64
71177;DHT22;58877;51.992;4.504;2023-12-04T15:08:20;4.52;80.78
71177;DHT22;58877;51.992;4.504;2023-12-04T15:11:07;4.48;81.02
71177;DHT22;58877;51.992;4.504;2023-12-04T15:13:51;4.44;81.24
71177;DHT22;58877;51.992;4.504;2023-12-04T15:16:26;4.49;81.19
71177;DHT22;58877;51.992;4.504;2023-12-04T15:19:10;4.49;81.63
71177;DHT22;58877;51.992;4.504;2023-12-04T15:21:37;4.41;81.58
71177;DHT22;58877;51.992;4.504;2023-12-04T15:24:03;4.41;81.69
71177;DHT22;58877;51.992;4.504;2023-12-04T15:26:29;4.40;82.02
71177;DHT22;58877;51.992;4.504;2023-12-04T15:28:56;4.37;82.13
71177;DHT22;58877;51.992;4.504;2023-12-04T15:31:21;4.36;82.38
71177;DHT22;58877;51.992;4.504;2023-12-04T15:33:47;4.37;82.45
71177;DHT22;58877;51.992;4.504;2023-12-04T15:36:13;4.40;82.43
71177;DHT22;58877;51.992;4.504;2023-12-04T15:38:39;4.38;82.51
71177;DHT22;58877;51.992;4.504;2023-12-04T15:41:05;4.45;82.48
71177;DHT22;58877;51.992;4.504;2023-12-04T15:43:31;4.49;82.54
71177;DHT22;58877;51.992;4.504;2023-12-04T15:45:57;4.40;82.64
71177;DHT22;58877;51.992;4.504;2023-12-04T15:48:23;4.33;82.86
71177;DHT22;58877;51.992;4.504;2023-12-04T15:50:48;4.45;82.90
71177;DHT22;58877;51.992;4.504;2023-12-04T15:53:16;4.42;82.80
71177;DHT22;58877;51.992;4.504;2023-12-04T15:55:45;4.40;82.92
71177;DHT22;58877;51.992;4.504;2023-12-04T15:58:12;4.41;82.77